Terminal Aerodrome Forecast
Issued by NWS Pocatello, ID

Home | Current Version | Previous Version | Text Only | Print | Product List | Glossary On
Versions: 1 2 3 4 5 6 7 8 9 10 11 12 13 14 15
565
FTUS45 KPIH 300520
TAFPIH
TAF
KPIH 300520Z 3006/0106 14006KT P6SM FEW110 SCT160
     FM301500 04007KT P6SM FEW050 FEW090 SCT120
     FM302100 21010G20KT P6SM VCTS FEW060CB SCT120
     FM010200 16010KT P6SM FEW090=

USA.gov is the U.S. government's official web portal to all federal, state and local government web resources and services.